sensor_id;sensor_type;location;lat;lon;timestamp;temperature;humidity
1994;DHT22;998;49.906;10.908;2022-08-21T00:01:24;19.00;99.90
1994;DHT22;998;49.906;10.908;2022-08-21T00:03:51;18.90;99.90
1994;DHT22;998;49.906;10.908;2022-08-21T00:06:18;18.80;99.90
1994;DHT22;998;49.906;10.908;2022-08-21T00:08:47;18.90;99.90
1994;DHT22;998;49.906;10.908;2022-08-21T00:11:14;19.00;99.90
1994;DHT22;998;49.906;10.908;2022-08-21T00:13:41;19.00;99.90
1994;DHT22;998;49.906;10.908;2022-08-21T00:16:08;19.10;99.90
1994;DHT22;998;49.906;10.908;2022-08-21T00:18:36;19.10;99.90
1994;DHT22;998;49.906;10.908;2022-08-21T00:21:03;19.10;99.90
1994;DHT22;998;49.906;10.908;2022-08-21T00:23:32;19.00;99.90
1994;DHT22;998;49.906;10.908;2022-08-21T00:26:01;19.00;99.90
1994;DHT22;998;49.906;10.908;2022-08-21T00:28:28;19.00;99.90
1994;DHT22;998;49.906;10.908;2022-08-21T00:30:55;18.90;99.90
1994;DHT22;998;49.906;10.908;2022-08-21T00:33:22;18.70;99.90
1994;DHT22;998;49.906;10.908;2022-08-21T00:35:49;18.70;99.90
1994;DHT22;998;49.906;10.908;2022-08-21T00:38:16;18.70;99.90
1994;DHT22;998;49.906;10.908;2022-08-21T00:40:45;18.70;99.90
1994;DHT22;998;49.906;10.908;2022-08-21T00:43:18;18.80;99.90
1994;DHT22;998;49.906;10.908;2022-08-21T00:45:46;18.90;99.90
1994;DHT22;998;49.906;10.908;2022-08-21T00:48:13;18.70;99.90
1994;DHT22;998;49.906;10.908;2022-08-21T00:50:45;18.70;99.90
1994;DHT22;998;49.906;10.908;2022-08-21T00:53:13;18.90;99.90
1994;DHT22;998;49.906;10.908;2022-08-21T00:55:41;18.80;99.90
1994;DHT22;998;49.906;10.908;2022-08-21T00:58:09;18.80;99.90
1994;DHT22;998;49.906;10.908;2022-08-21T01:00:42;18.80;99.90
1994;DHT22;998;49.906;10.908;2022-08-21T01:03:12;18.90;99.90
1994;DHT22;998;49.906;10.908;2022-08-21T01:05:40;18.90;99.90
1994;DHT22;998;49.906;10.908;2022-08-21T01:08:08;18.80;99.90
1994;DHT22;998;49.906;10.908;2022-08-21T01:10:36;18.80;99.90
1994;DHT22;998;49.906;10.908;2022-08-21T01:13:06;18.70;99.90
1994;DHT22;998;49.906;10.908;2022-08-21T01:15:38;18.70;99.90
1994;DHT22;998;49.906;10.908;2022-08-21T01:18:07;18.60;99.90
1994;DHT22;998;49.906;10.908;2022-08-21T01:20:35;18.60;99.90
1994;DHT22;998;49.906;10.908;2022-08-21T01:23:05;18.60;99.90
1994;DHT22;998;49.906;10.908;2022-08-21T01:25:33;18.70;99.90
1994;DHT22;998;49.906;10.908;2022-08-21T01:28:06;18.60;99.90
1994;DHT22;998;49.906;10.908;2022-08-21T01:30:36;18.60;99.90
1994;DHT22;998;49.906;10.908;2022-08-21T01:33:04;18.60;99.90
1994;DHT22;998;49.906;10.908;2022-08-21T01:35:31;18.50;99.90
1994;DHT22;998;49.906;10.908;2022-08-21T01:37:58;18.50;99.90
1994;DHT22;998;49.906;10.908;2022-08-21T01:40:27;18.50;99.90
1994;DHT22;998;49.906;10.908;2022-08-21T01:42:54;18.50;99.90
1994;DHT22;998;49.906;10.908;2022-08-21T01:45:21;18.50;99.90
1994;DHT22;998;49.906;10.908;2022-08-21T01:47:48;18.50;99.90
1994;DHT22;998;49.906;10.908;2022-08-21T01:50:17;18.50;99.90
1994;DHT22;998;49.906;10.908;2022-08-21T01:52:44;18.40;99.90
1994;DHT22;998;49.906;10.908;2022-08-21T01:55:12;18.30;99.90
1994;DHT22;998;49.906;10.908;2022-08-21T01:57:40;18.30;99.90
1994;DHT22;998;49.906;10.908;2022-08-21T02:00:10;18.20;99.90
1994;DHT22;998;49.906;10.908;2022-08-21T02:02:38;18.10;99.90
1994;DHT22;998;49.906;10.908;2022-08-21T02:05:07;18.10;99.90
1994;DHT22;998;49.906;10.908;2022-08-21T02:07:36;18.10;99.90
1994;DHT22;998;49.906;10.908;2022-08-21T02:10:06;18.20;99.90
1994;DHT22;998;49.906;10.908;2022-08-21T02:12:33;18.20;99.90
1994;DHT22;998;49.906;10.908;2022-08-21T02:15:02;18.20;99.90
1994;DHT22;998;49.906;10.908;2022-08-21T02:17:38;18.30;99.90
1994;DHT22;998;49.906;10.908;2022-08-21T02:20:05;18.20;99.90
1994;DHT22;998;49.906;10.908;2022-08-21T02:22:33;18.20;99.90
1994;DHT22;998;49.906;10.908;2022-08-21T02:25:00;17.80;99.90
1994;DHT22;998;49.906;10.908;2022-08-21T02:27:27;17.90;99.90
1994;DHT22;998;49.906;10.908;2022-08-21T02:29:55;18.00;99.90
1994;DHT22;998;49.906;10.908;2022-08-21T02:32:24;18.10;99.90
1994;DHT22;998;49.906;10.908;2022-08-21T02:34:51;18.10;99.90
1994;DHT22;998;49.906;10.908;2022-08-21T02:37:18;18.10;99.90
1994;DHT22;998;49.906;10.908;2022-08-21T02:39:45;18.00;99.90
1994;DHT22;998;49.906;10.908;2022-08-21T02:42:12;17.90;99.90
1994;DHT22;998;49.906;10.908;2022-08-21T02:44:39;17.80;99.90
1994;DHT22;998;49.906;10.908;2022-08-21T02:47:05;18.10;99.90
1994;DHT22;998;49.906;10.908;2022-08-21T02:49:34;18.10;99.90
1994;DHT22;998;49.906;10.908;2022-08-21T02:52:01;18.20;99.90
1994;DHT22;998;49.906;10.908;2022-08-21T02:54:28;18.30;99.90
1994;DHT22;998;49.906;10.908;2022-08-21T02:56:55;18.30;99.90
1994;DHT22;998;49.906;10.908;2022-08-21T02:59:22;18.20;99.90
1994;DHT22;998;49.906;10.908;2022-08-21T03:01:49;18.20;99.90
1994;DHT22;998;49.906;10.908;2022-08-21T03:04:16;18.30;99.90
1994;DHT22;998;49.906;10.908;2022-08-21T03:06:45;18.30;99.90
1994;DHT22;998;49.906;10.908;2022-08-21T03:09:11;18.30;99.90
1994;DHT22;998;49.906;10.908;2022-08-21T03:11:38;18.30;99.90
1994;DHT22;998;49.906;10.908;2022-08-21T03:14:05;18.30;99.90
1994;DHT22;998;49.906;10.908;2022-08-21T03:16:32;18.20;99.90
1994;DHT22;998;49.906;10.908;2022-08-21T03:18:59;18.20;99.90
1994;DHT22;998;49.906;10.908;2022-08-21T03:21:26;18.20;99.90
1994;DHT22;998;49.906;10.908;2022-08-21T03:23:54;18.20;99.90
1994;DHT22;998;49.906;10.908;2022-08-21T03:26:21;18.30;99.90
1994;DHT22;998;49.906;10.908;2022-08-21T03:28:49;18.10;99.90
1994;DHT22;998;49.906;10.908;2022-08-21T03:31:17;18.10;99.90
1994;DHT22;998;49.906;10.908;2022-08-21T03:33:44;18.30;99.90
1994;DHT22;998;49.906;10.908;2022-08-21T03:36:11;18.30;99.90
1994;DHT22;998;49.906;10.908;2022-08-21T03:38:37;18.30;99.90
1994;DHT22;998;49.906;10.908;2022-08-21T03:41:07;18.20;99.90
1994;DHT22;998;49.906;10.908;2022-08-21T03:43:34;18.30;99.90
1994;DHT22;998;49.906;10.908;2022-08-21T03:46:02;18.30;99.90
1994;DHT22;998;49.906;10.908;2022-08-21T03:48:29;18.30;99.90
1994;DHT22;998;49.906;10.908;2022-08-21T03:50:56;18.30;99.90
1994;DHT22;998;49.906;10.908;2022-08-21T03:53:23;18.30;99.90
1994;DHT22;998;49.906;10.908;2022-08-21T03:55:51;18.30;99.90
1994;DHT22;998;49.906;10.908;2022-08-21T03:58:21;18.30;99.90
1994;DHT22;998;49.906;10.908;2022-08-21T04:00:50;18.30;99.90
1994;DHT22;998;49.906;10.908;2022-08-21T04:03:18;18.30;99.90
1994;DHT22;998;49.906;10.908;2022-08-21T04:05:45;18.20;99.90
1994;DHT22;998;49.906;10.908;2022-08-21T04:08:13;18.20;99.90
1994;DHT22;998;49.906;10.908;2022-08-21T04:10:40;18.10;99.90
1994;DHT22;998;49.906;10.908;2022-08-21T04:13:08;18.00;99.90
1994;DHT22;998;49.906;10.908;2022-08-21T04:15:36;17.90;99.90
1994;DHT22;998;49.906;10.908;2022-08-21T04:18:04;18.10;99.90
1994;DHT22;998;49.906;10.908;2022-08-21T04:20:31;18.10;99.90
1994;DHT22;998;49.906;10.908;2022-08-21T04:22:58;18.20;99.90
1994;DHT22;998;49.906;10.908;2022-08-21T04:25:25;18.20;99.90
1994;DHT22;998;49.906;10.908;2022-08-21T04:27:52;18.20;99.90
1994;DHT22;998;49.906;10.908;2022-08-21T04:30:20;18.10;99.90
1994;DHT22;998;49.906;10.908;2022-08-21T04:32:49;18.00;99.90
1994;DHT22;998;49.906;10.908;2022-08-21T04:35:18;18.10;99.90
1994;DHT22;998;49.906;10.908;2022-08-21T04:37:45;18.20;99.90
1994;DHT22;998;49.906;10.908;2022-08-21T04:40:15;18.10;99.90
1994;DHT22;998;49.906;10.908;2022-08-21T04:42:43;18.20;99.90
1994;DHT22;998;49.906;10.908;2022-08-21T04:45:16;18.10;99.90
1994;DHT22;998;49.906;10.908;2022-08-21T04:47:45;18.20;99.90
1994;DHT22;998;49.906;10.908;2022-08-21T04:50:14;18.20;99.90
1994;DHT22;998;49.906;10.908;2022-08-21T04:52:40;18.30;99.90
1994;DHT22;998;49.906;10.908;2022-08-21T04:55:07;18.20;99.90
1994;DHT22;998;49.906;10.908;2022-08-21T04:57:35;18.30;99.90
1994;DHT22;998;49.906;10.908;2022-08-21T05:00:03;18.20;99.90
1994;DHT22;998;49.906;10.908;2022-08-21T05:02:32;18.00;99.90
1994;DHT22;998;49.906;10.908;2022-08-21T05:04:59;18.00;99.90
1994;DHT22;998;49.906;10.908;2022-08-21T05:07:29;18.10;99.90
1994;DHT22;998;49.906;10.908;2022-08-21T05:09:56;17.90;99.90
1994;DHT22;998;49.906;10.908;2022-08-21T05:12:23;17.80;99.90
1994;DHT22;998;49.906;10.908;2022-08-21T05:14:50;17.80;99.90
1994;DHT22;998;49.906;10.908;2022-08-21T05:17:18;17.90;99.90
1994;DHT22;998;49.906;10.908;2022-08-21T05:19:45;17.90;99.90
1994;DHT22;998;49.906;10.908;2022-08-21T05:22:19;18.00;99.90
1994;DHT22;998;49.906;10.908;2022-08-21T05:24:47;18.10;99.90
1994;DHT22;998;49.906;10.908;2022-08-21T05:27:14;18.20;99.90
1994;DHT22;998;49.906;10.908;2022-08-21T05:29:41;18.10;99.90
1994;DHT22;998;49.906;10.908;2022-08-21T05:32:09;18.10;99.90
1994;DHT22;998;49.906;10.908;2022-08-21T05:34:36;18.10;99.90
1994;DHT22;998;49.906;10.908;2022-08-21T05:37:03;18.10;99.90
1994;DHT22;998;49.906;10.908;2022-08-21T05:39:30;18.00;99.90
1994;DHT22;998;49.906;10.908;2022-08-21T05:41:59;17.90;99.90
1994;DHT22;998;49.906;10.908;2022-08-21T05:44:26;17.80;99.90
1994;DHT22;998;49.906;10.908;2022-08-21T05:46:52;17.80;99.90
1994;DHT22;998;49.906;10.908;2022-08-21T05:49:19;17.80;99.90
1994;DHT22;998;49.906;10.908;2022-08-21T05:51:46;17.80;99.90
1994;DHT22;998;49.906;10.908;2022-08-21T05:54:13;17.70;99.90
1994;DHT22;998;49.906;10.908;2022-08-21T05:56:40;17.60;99.90
1994;DHT22;998;49.906;10.908;2022-08-21T05:59:11;17.80;99.90
1994;DHT22;998;49.906;10.908;2022-08-21T06:01:38;17.70;99.90
1994;DHT22;998;49.906;10.908;2022-08-21T06:04:05;17.80;99.90
1994;DHT22;998;49.906;10.908;2022-08-21T06:06:32;17.70;99.90
1994;DHT22;998;49.906;10.908;2022-08-21T06:08:59;17.70;99.90
1994;DHT22;998;49.906;10.908;2022-08-21T06:11:26;17.90;99.90
1994;DHT22;998;49.906;10.908;2022-08-21T06:13:53;18.00;99.90
1994;DHT22;998;49.906;10.908;2022-08-21T06:16:22;18.10;99.90
1994;DHT22;998;49.906;10.908;2022-08-21T06:18:49;18.00;99.90
1994;DHT22;998;49.906;10.908;2022-08-21T06:21:16;18.10;99.90
1994;DHT22;998;49.906;10.908;2022-08-21T06:23:44;18.10;99.90
1994;DHT22;998;49.906;10.908;2022-08-21T06:26:12;18.00;99.90
1994;DHT22;998;49.906;10.908;2022-08-21T06:28:40;18.00;99.90
1994;DHT22;998;49.906;10.908;2022-08-21T06:31:12;18.10;99.90
1994;DHT22;998;49.906;10.908;2022-08-21T06:33:41;18.10;99.90
1994;DHT22;998;49.906;10.908;2022-08-21T06:36:08;18.20;99.90
1994;DHT22;998;49.906;10.908;2022-08-21T06:38:35;18.10;99.90
1994;DHT22;998;49.906;10.908;2022-08-21T06:41:02;18.10;99.90
1994;DHT22;998;49.906;10.908;2022-08-21T06:43:29;18.10;99.90
1994;DHT22;998;49.906;10.908;2022-08-21T06:45:56;18.10;99.90
1994;DHT22;998;49.906;10.908;2022-08-21T06:48:23;18.00;99.90
1994;DHT22;998;49.906;10.908;2022-08-21T06:50:51;18.00;99.90
1994;DHT22;998;49.906;10.908;2022-08-21T06:53:20;18.10;99.90
1994;DHT22;998;49.906;10.908;2022-08-21T06:55:48;18.20;99.90
1994;DHT22;998;49.906;10.908;2022-08-21T06:58:15;18.30;99.90
1994;DHT22;998;49.906;10.908;2022-08-21T07:00:44;18.30;99.90
1994;DHT22;998;49.906;10.908;2022-08-21T07:03:17;18.30;99.90
1994;DHT22;998;49.906;10.908;2022-08-21T07:05:44;18.10;99.90
1994;DHT22;998;49.906;10.908;2022-08-21T07:08:12;17.80;99.90
1994;DHT22;998;49.906;10.908;2022-08-21T07:10:39;18.00;99.90
1994;DHT22;998;49.906;10.908;2022-08-21T07:13:06;18.20;99.90
1994;DHT22;998;49.906;10.908;2022-08-21T07:15:33;18.00;99.90
1994;DHT22;998;49.906;10.908;2022-08-21T07:18:00;18.00;99.90
1994;DHT22;998;49.906;10.908;2022-08-21T07:20:28;18.30;99.90
1994;DHT22;998;49.906;10.908;2022-08-21T07:22:57;18.40;99.90
1994;DHT22;998;49.906;10.908;2022-08-21T07:25:27;18.10;99.90
1994;DHT22;998;49.906;10.908;2022-08-21T07:27:54;18.20;99.90
1994;DHT22;998;49.906;10.908;2022-08-21T07:30:21;18.20;99.90
1994;DHT22;998;49.906;10.908;2022-08-21T07:32:49;18.00;99.90
1994;DHT22;998;49.906;10.908;2022-08-21T07:35:16;18.10;99.90
1994;DHT22;998;49.906;10.908;2022-08-21T07:37:43;18.20;99.90
1994;DHT22;998;49.906;10.908;2022-08-21T07:40:11;18.30;99.90
1994;DHT22;998;49.906;10.908;2022-08-21T07:42:41;18.20;99.90
1994;DHT22;998;49.906;10.908;2022-08-21T07:45:10;18.20;99.90
1994;DHT22;998;49.906;10.908;2022-08-21T07:47:37;18.30;99.90
1994;DHT22;998;49.906;10.908;2022-08-21T07:50:05;18.40;99.90
1994;DHT22;998;49.906;10.908;2022-08-21T07:52:33;18.40;99.90
1994;DHT22;998;49.906;10.908;2022-08-21T07:55:00;18.60;99.90
1994;DHT22;998;49.906;10.908;2022-08-21T07:57:27;18.60;99.90
1994;DHT22;998;49.906;10.908;2022-08-21T07:59:55;18.40;99.90
1994;DHT22;998;49.906;10.908;2022-08-21T08:02:23;18.40;99.90
1994;DHT22;998;49.906;10.908;2022-08-21T08:04:50;18.60;99.90
1994;DHT22;998;49.906;10.908;2022-08-21T08:07:18;18.70;99.90
1994;DHT22;998;49.906;10.908;2022-08-21T08:09:45;18.60;99.90
1994;DHT22;998;49.906;10.908;2022-08-21T08:12:12;18.70;99.90
1994;DHT22;998;49.906;10.908;2022-08-21T08:14:39;18.70;99.90
1994;DHT22;998;49.906;10.908;2022-08-21T08:17:07;18.70;99.90
1994;DHT22;998;49.906;10.908;2022-08-21T08:19:34;18.70;99.90
1994;DHT22;998;49.906;10.908;2022-08-21T08:22:01;18.70;99.90
1994;DHT22;998;49.906;10.908;2022-08-21T08:24:28;18.80;99.90
1994;DHT22;998;49.906;10.908;2022-08-21T08:26:55;18.90;99.90
1994;DHT22;998;49.906;10.908;2022-08-21T08:29:23;19.00;99.90
1994;DHT22;998;49.906;10.908;2022-08-21T08:31:53;19.00;99.90
1994;DHT22;998;49.906;10.908;2022-08-21T08:34:21;19.20;99.90
1994;DHT22;998;49.906;10.908;2022-08-21T08:36:48;19.20;99.90
1994;DHT22;998;49.906;10.908;2022-08-21T08:39:16;19.20;99.90
1994;DHT22;998;49.906;10.908;2022-08-21T08:41:44;19.30;99.90
1994;DHT22;998;49.906;10.908;2022-08-21T08:44:12;19.30;99.90
1994;DHT22;998;49.906;10.908;2022-08-21T08:46:43;19.30;99.90
1994;DHT22;998;49.906;10.908;2022-08-21T08:49:15;19.00;99.90
1994;DHT22;998;49.906;10.908;2022-08-21T08:51:51;19.00;99.90
1994;DHT22;998;49.906;10.908;2022-08-21T08:54:25;19.00;99.90
1994;DHT22;998;49.906;10.908;2022-08-21T08:56:58;19.00;99.90
1994;DHT22;998;49.906;10.908;2022-08-21T08:59:27;19.00;99.90
1994;DHT22;998;49.906;10.908;2022-08-21T09:01:59;19.10;99.90
1994;DHT22;998;49.906;10.908;2022-08-21T09:04:27;19.00;99.90
1994;DHT22;998;49.906;10.908;2022-08-21T09:07:07;19.00;99.90
1994;DHT22;998;49.906;10.908;2022-08-21T09:09:48;19.10;99.90
1994;DHT22;998;49.906;10.908;2022-08-21T09:12:29;19.10;99.90
1994;DHT22;998;49.906;10.908;2022-08-21T09:15:03;18.90;99.90
1994;DHT22;998;49.906;10.908;2022-08-21T09:17:46;18.90;99.90
1994;DHT22;998;49.906;10.908;2022-08-21T09:20:27;19.10;99.90
1994;DHT22;998;49.906;10.908;2022-08-21T09:23:09;19.20;99.90
1994;DHT22;998;49.906;10.908;2022-08-21T09:25:42;19.30;99.90
1994;DHT22;998;49.906;10.908;2022-08-21T09:28:12;19.10;99.90
1994;DHT22;998;49.906;10.908;2022-08-21T09:30:41;19.00;99.90
1994;DHT22;998;49.906;10.908;2022-08-21T09:33:09;19.00;99.90
1994;DHT22;998;49.906;10.908;2022-08-21T09:35:48;19.20;99.90
1994;DHT22;998;49.906;10.908;2022-08-21T09:38:26;19.10;99.90
1994;DHT22;998;49.906;10.908;2022-08-21T09:40:58;19.20;99.90
1994;DHT22;998;49.906;10.908;2022-08-21T09:43:26;19.10;99.90
1994;DHT22;998;49.906;10.908;2022-08-21T09:46:03;19.00;99.90
1994;DHT22;998;49.906;10.908;2022-08-21T09:48:40;19.00;99.90
1994;DHT22;998;49.906;10.908;2022-08-21T09:51:10;19.10;99.90
1994;DHT22;998;49.906;10.908;2022-08-21T09:53:45;19.20;99.90
1994;DHT22;998;49.906;10.908;2022-08-21T09:56:28;19.20;99.90
1994;DHT22;998;49.906;10.908;2022-08-21T09:59:19;19.10;99.90
1994;DHT22;998;49.906;10.908;2022-08-21T10:01:48;19.20;99.90
1994;DHT22;998;49.906;10.908;2022-08-21T10:04:20;19.30;99.90
1994;DHT22;998;49.906;10.908;2022-08-21T10:06:47;19.50;99.90
1994;DHT22;998;49.906;10.908;2022-08-21T10:09:19;19.50;99.90
1994;DHT22;998;49.906;10.908;2022-08-21T10:11:51;19.50;99.90
1994;DHT22;998;49.906;10.908;2022-08-21T10:14:37;19.60;99.90
1994;DHT22;998;49.906;10.908;2022-08-21T10:17:16;19.60;99.90
1994;DHT22;998;49.906;10.908;2022-08-21T10:19:50;19.80;99.90
1994;DHT22;998;49.906;10.908;2022-08-21T10:22:32;20.00;99.90
1994;DHT22;998;49.906;10.908;2022-08-21T10:25:17;20.10;99.90
1994;DHT22;998;49.906;10.908;2022-08-21T10:27:54;20.10;99.90
1994;DHT22;998;49.906;10.908;2022-08-21T10:30:45;20.20;99.90
1994;DHT22;998;49.906;10.908;2022-08-21T10:33:24;20.40;99.90
1994;DHT22;998;49.906;10.908;2022-08-21T10:35:59;20.70;99.90
1994;DHT22;998;49.906;10.908;2022-08-21T10:38:49;20.90;99.90
1994;DHT22;998;49.906;10.908;2022-08-21T10:41:29;20.90;99.90
1994;DHT22;998;49.906;10.908;2022-08-21T10:44:07;21.00;99.90
1994;DHT22;998;49.906;10.908;2022-08-21T10:46:42;21.20;99.90
1994;DHT22;998;49.906;10.908;2022-08-21T10:49:20;21.40;99.90
1994;DHT22;998;49.906;10.908;2022-08-21T10:51:56;21.50;99.90
1994;DHT22;998;49.906;10.908;2022-08-21T10:54:35;21.60;99.90
1994;DHT22;998;49.906;10.908;2022-08-21T10:57:11;21.80;99.90
1994;DHT22;998;49.906;10.908;2022-08-21T10:59:47;21.90;99.90
1994;DHT22;998;49.906;10.908;2022-08-21T11:02:25;22.00;99.90
1994;DHT22;998;49.906;10.908;2022-08-21T11:04:56;22.10;99.90
1994;DHT22;998;49.906;10.908;2022-08-21T11:07:28;22.10;99.90
1994;DHT22;998;49.906;10.908;2022-08-21T11:10:00;22.30;99.90
1994;DHT22;998;49.906;10.908;2022-08-21T11:12:41;22.40;99.90
1994;DHT22;998;49.906;10.908;2022-08-21T11:15:20;22.50;99.90
1994;DHT22;998;49.906;10.908;2022-08-21T11:17:54;22.60;99.90
1994;DHT22;998;49.906;10.908;2022-08-21T11:20:29;22.70;99.90
1994;DHT22;998;49.906;10.908;2022-08-21T11:23:03;22.90;99.90
1994;DHT22;998;49.906;10.908;2022-08-21T11:25:36;23.00;99.90
1994;DHT22;998;49.906;10.908;2022-08-21T11:28:10;23.00;99.90
1994;DHT22;998;49.906;10.908;2022-08-21T11:30:44;23.00;99.90
1994;DHT22;998;49.906;10.908;2022-08-21T11:33:25;23.00;99.90
1994;DHT22;998;49.906;10.908;2022-08-21T11:36:00;23.20;99.90
1994;DHT22;998;49.906;10.908;2022-08-21T11:38:34;23.50;99.90
1994;DHT22;998;49.906;10.908;2022-08-21T11:41:13;23.60;99.90
1994;DHT22;998;49.906;10.908;2022-08-21T11:43:47;23.80;99.90
1994;DHT22;998;49.906;10.908;2022-08-21T11:46:24;24.10;99.90
1994;DHT22;998;49.906;10.908;2022-08-21T11:49:02;24.20;99.90
1994;DHT22;998;49.906;10.908;2022-08-21T11:51:37;24.50;99.90
1994;DHT22;998;49.906;10.908;2022-08-21T11:54:12;24.80;99.90
1994;DHT22;998;49.906;10.908;2022-08-21T11:56:47;25.20;99.90
1994;DHT22;998;49.906;10.908;2022-08-21T11:59:22;25.50;99.90
1994;DHT22;998;49.906;10.908;2022-08-21T12:01:53;26.10;99.90
1994;DHT22;998;49.906;10.908;2022-08-21T12:04:28;26.40;99.90
1994;DHT22;998;49.906;10.908;2022-08-21T12:06:55;26.80;99.90
1994;DHT22;998;49.906;10.908;2022-08-21T12:09:34;27.10;99.90
1994;DHT22;998;49.906;10.908;2022-08-21T12:12:05;27.60;99.90
1994;DHT22;998;49.906;10.908;2022-08-21T12:14:40;28.10;99.90
1994;DHT22;998;49.906;10.908;2022-08-21T12:17:15;28.60;99.90
1994;DHT22;998;49.906;10.908;2022-08-21T12:19:43;29.00;99.90
1994;DHT22;998;49.906;10.908;2022-08-21T12:22:12;29.30;99.90
1994;DHT22;998;49.906;10.908;2022-08-21T12:24:44;29.30;92.90
1994;DHT22;998;49.906;10.908;2022-08-21T12:27:27;29.60;93.40
1994;DHT22;998;49.906;10.908;2022-08-21T12:30:00;29.90;91.80
1994;DHT22;998;49.906;10.908;2022-08-21T12:32:28;30.10;91.30
1994;DHT22;998;49.906;10.908;2022-08-21T12:35:08;30.40;85.60
1994;DHT22;998;49.906;10.908;2022-08-21T12:37:40;30.30;85.60
1994;DHT22;998;49.906;10.908;2022-08-21T12:40:14;30.70;82.80
1994;DHT22;998;49.906;10.908;2022-08-21T12:42:47;31.20;80.50
1994;DHT22;998;49.906;10.908;2022-08-21T12:45:21;31.10;77.60
1994;DHT22;998;49.906;10.908;2022-08-21T12:47:55;30.80;80.10
1994;DHT22;998;49.906;10.908;2022-08-21T12:50:29;31.20;77.60
1994;DHT22;998;49.906;10.908;2022-08-21T12:53:01;31.70;76.60
1994;DHT22;998;49.906;10.908;2022-08-21T12:55:33;31.40;77.20
1994;DHT22;998;49.906;10.908;2022-08-21T12:58:00;31.70;78.00
1994;DHT22;998;49.906;10.908;2022-08-21T13:00:29;31.50;77.70
1994;DHT22;998;49.906;10.908;2022-08-21T13:02:57;31.70;78.30
1994;DHT22;998;49.906;10.908;2022-08-21T13:05:29;31.70;72.00
1994;DHT22;998;49.906;10.908;2022-08-21T13:07:57;31.50;75.30
1994;DHT22;998;49.906;10.908;2022-08-21T13:10:26;31.30;70.00
1994;DHT22;998;49.906;10.908;2022-08-21T13:12:56;31.30;70.00
1994;DHT22;998;49.906;10.908;2022-08-21T13:15:28;31.10;68.40
1994;DHT22;998;49.906;10.908;2022-08-21T13:17:57;30.40;68.10
1994;DHT22;998;49.906;10.908;2022-08-21T13:20:29;30.60;71.80
1994;DHT22;998;49.906;10.908;2022-08-21T13:22:56;31.20;70.20
1994;DHT22;998;49.906;10.908;2022-08-21T13:25:29;31.50;68.40
1994;DHT22;998;49.906;10.908;2022-08-21T13:27:59;31.50;68.70
1994;DHT22;998;49.906;10.908;2022-08-21T13:30:26;31.20;64.80
1994;DHT22;998;49.906;10.908;2022-08-21T13:32:57;30.00;68.00
1994;DHT22;998;49.906;10.908;2022-08-21T13:35:30;30.40;69.00
1994;DHT22;998;49.906;10.908;2022-08-21T13:37:58;30.90;68.40
1994;DHT22;998;49.906;10.908;2022-08-21T13:40:28;31.20;64.60
1994;DHT22;998;49.906;10.908;2022-08-21T13:42:55;31.30;67.00
1994;DHT22;998;49.906;10.908;2022-08-21T13:45:24;31.30;65.50
1994;DHT22;998;49.906;10.908;2022-08-21T13:47:52;30.80;65.90
1994;DHT22;998;49.906;10.908;2022-08-21T13:50:23;30.60;65.00
1994;DHT22;998;49.906;10.908;2022-08-21T13:52:57;30.90;68.80
1994;DHT22;998;49.906;10.908;2022-08-21T13:55:25;31.10;67.60
1994;DHT22;998;49.906;10.908;2022-08-21T13:58:03;31.20;64.50
1994;DHT22;998;49.906;10.908;2022-08-21T14:00:51;31.10;62.70
1994;DHT22;998;49.906;10.908;2022-08-21T14:03:27;31.50;64.90
1994;DHT22;998;49.906;10.908;2022-08-21T14:06:18;31.30;59.60
1994;DHT22;998;49.906;10.908;2022-08-21T14:08:50;31.10;60.40
1994;DHT22;998;49.906;10.908;2022-08-21T14:11:21;30.90;58.80
1994;DHT22;998;49.906;10.908;2022-08-21T14:13:50;31.00;60.70
1994;DHT22;998;49.906;10.908;2022-08-21T14:16:40;31.10;59.80
1994;DHT22;998;49.906;10.908;2022-08-21T14:19:19;30.90;58.10
1994;DHT22;998;49.906;10.908;2022-08-21T14:21:47;31.20;58.30
1994;DHT22;998;49.906;10.908;2022-08-21T14:24:25;31.10;59.50
1994;DHT22;998;49.906;10.908;2022-08-21T14:32:55;30.50;59.00
1994;DHT22;998;49.906;10.908;2022-08-21T14:35:25;30.20;59.70
1994;DHT22;998;49.906;10.908;2022-08-21T14:37:53;30.00;59.50
1994;DHT22;998;49.906;10.908;2022-08-21T14:40:22;29.90;62.80
1994;DHT22;998;49.906;10.908;2022-08-21T14:42:50;29.70;61.00
1994;DHT22;998;49.906;10.908;2022-08-21T14:45:19;29.90;62.90
1994;DHT22;998;49.906;10.908;2022-08-21T14:47:49;30.10;62.60
1994;DHT22;998;49.906;10.908;2022-08-21T14:50:16;30.30;61.50
1994;DHT22;998;49.906;10.908;2022-08-21T14:55:53;30.20;59.20
1994;DHT22;998;49.906;10.908;2022-08-21T14:58:48;30.00;58.20
1994;DHT22;998;49.906;10.908;2022-08-21T15:01:17;30.10;61.10
1994;DHT22;998;49.906;10.908;2022-08-21T15:03:48;30.00;59.60
1994;DHT22;998;49.906;10.908;2022-08-21T15:06:37;30.00;59.40
1994;DHT22;998;49.906;10.908;2022-08-21T15:09:04;30.00;60.70
1994;DHT22;998;49.906;10.908;2022-08-21T15:11:33;30.10;60.60
1994;DHT22;998;49.906;10.908;2022-08-21T15:14:02;30.40;59.50
1994;DHT22;998;49.906;10.908;2022-08-21T15:16:30;30.00;58.50
1994;DHT22;998;49.906;10.908;2022-08-21T15:18:57;29.50;59.10
1994;DHT22;998;49.906;10.908;2022-08-21T15:21:24;29.50;60.20
1994;DHT22;998;49.906;10.908;2022-08-21T15:23:54;29.50;60.10
1994;DHT22;998;49.906;10.908;2022-08-21T15:26:22;29.50;62.50
1994;DHT22;998;49.906;10.908;2022-08-21T15:28:50;29.30;63.20
1994;DHT22;998;49.906;10.908;2022-08-21T15:31:18;29.00;63.10
1994;DHT22;998;49.906;10.908;2022-08-21T15:33:44;29.00;63.80
1994;DHT22;998;49.906;10.908;2022-08-21T15:36:12;29.10;62.80
1994;DHT22;998;49.906;10.908;2022-08-21T15:38:38;29.10;63.80
1994;DHT22;998;49.906;10.908;2022-08-21T15:41:08;29.10;60.80
1994;DHT22;998;49.906;10.908;2022-08-21T15:43:40;28.90;63.90
1994;DHT22;998;49.906;10.908;2022-08-21T15:46:12;28.70;64.30
1994;DHT22;998;49.906;10.908;2022-08-21T15:48:44;28.50;64.30
1994;DHT22;998;49.906;10.908;2022-08-21T15:51:12;28.50;63.20
1994;DHT22;998;49.906;10.908;2022-08-21T15:53:40;28.50;62.10
1994;DHT22;998;49.906;10.908;2022-08-21T15:56:14;28.60;61.70
1994;DHT22;998;49.906;10.908;2022-08-21T15:58:43;28.90;60.50
1994;DHT22;998;49.906;10.908;2022-08-21T16:01:20;28.90;60.00
1994;DHT22;998;49.906;10.908;2022-08-21T16:03:49;29.00;59.20
1994;DHT22;998;49.906;10.908;2022-08-21T16:06:19;29.00;59.80
1994;DHT22;998;49.906;10.908;2022-08-21T16:08:46;28.90;59.40
1994;DHT22;998;49.906;10.908;2022-08-21T16:11:15;28.60;59.10
1994;DHT22;998;49.906;10.908;2022-08-21T16:13:44;28.50;59.60
1994;DHT22;998;49.906;10.908;2022-08-21T16:16:16;28.40;61.90
1994;DHT22;998;49.906;10.908;2022-08-21T16:18:46;28.30;63.80
1994;DHT22;998;49.906;10.908;2022-08-21T16:21:24;28.20;67.30
1994;DHT22;998;49.906;10.908;2022-08-21T16:24:04;28.00;65.60
1994;DHT22;998;49.906;10.908;2022-08-21T16:26:32;27.90;64.90
1994;DHT22;998;49.906;10.908;2022-08-21T16:29:05;27.90;65.50
1994;DHT22;998;49.906;10.908;2022-08-21T16:31:34;27.90;66.90